createdAt,value
2018-03-20T00:02:02.568Z,66.61
2018-03-20T00:04:30.840Z,67.40
2018-03-20T00:06:59.119Z,67.48
2018-03-20T00:09:27.393Z,67.29
2018-03-20T00:11:55.835Z,67.79
2018-03-20T00:14:24.096Z,67.89
2018-03-20T00:16:53.116Z,68.56
2018-03-20T00:19:21.400Z,68.80
2018-03-20T00:21:49.661Z,69.68
2018-03-20T00:24:17.916Z,69.44
2018-03-20T00:26:46.967Z,69.64
2018-03-20T00:29:15.217Z,70.15
2018-03-20T00:31:43.479Z,69.92
2018-03-20T00:34:11.763Z,69.92
2018-03-20T00:36:40.039Z,70.29
2018-03-20T00:39:08.364Z,70.37
2018-03-20T00:41:36.639Z,70.54
2018-03-20T00:44:04.893Z,69.97
2018-03-20T00:46:33.218Z,69.96
2018-03-20T00:49:02.248Z,70.24
2018-03-20T00:51:30.504Z,70.86
2018-03-20T00:53:58.810Z,70.76
2018-03-20T00:56:27.072Z,71.13
2018-03-20T00:58:55.343Z,70.42
2018-03-20T01:01:23.624Z,71.08
2018-03-20T01:03:51.885Z,70.66
2018-03-20T01:06:20.152Z,70.52
2018-03-20T01:08:49.191Z,70.02
2018-03-20T01:11:17.495Z,69.86
2018-03-20T01:13:45.768Z,69.98
2018-03-20T01:16:14.032Z,70.46
2018-03-20T01:18:42.304Z,70.61
2018-03-20T01:21:10.587Z,71.19
2018-03-20T01:23:38.851Z,71.74
2018-03-20T01:26:07.119Z,72.49
2018-03-20T01:28:35.399Z,73.01
2018-03-20T01:31:03.665Z,72.82
2018-03-20T01:33:31.936Z,73.21
2018-03-20T01:36:00.249Z,73.16
2018-03-20T01:38:28.507Z,73.43
2018-03-20T01:40:56.765Z,73.92
2018-03-20T01:43:25.072Z,73.25
2018-03-20T01:45:53.332Z,72.83
2018-03-20T01:48:21.588Z,72.57
2018-03-20T01:50:49.867Z,72.52
2018-03-20T01:53:19.851Z,72.49
2018-03-20T01:55:48.898Z,72.34
2018-03-20T01:58:17.173Z,72.70
2018-03-20T02:00:45.440Z,73.64
2018-03-20T02:03:13.725Z,73.84
2018-03-20T02:05:41.984Z,73.77
2018-03-20T02:08:10.248Z,73.42
2018-03-20T02:10:38.520Z,73.66
2018-03-20T02:13:06.776Z,74.15
2018-03-20T02:15:35.823Z,75.06
2018-03-20T02:18:04.100Z,74.94
2018-03-20T02:20:32.362Z,74.30
2018-03-20T02:23:00.648Z,73.92
2018-03-20T02:25:28.943Z,74.21
2018-03-20T02:27:57.216Z,74.95
2018-03-20T02:30:25.965Z,74.95
2018-03-20T02:32:54.234Z,75.12
2018-03-20T02:35:22.493Z,75.82
2018-03-20T02:37:50.799Z,75.90
2018-03-20T02:40:19.065Z,76.69
2018-03-20T02:42:47.328Z,76.98
2018-03-20T02:45:15.623Z,77.39
2018-03-20T02:47:43.890Z,77.37
2018-03-20T02:50:12.158Z,77.72
2018-03-20T02:52:41.220Z,77.72
2018-03-20T02:55:10.270Z,77.53
2018-03-20T02:57:38.567Z,77.71
2018-03-20T03:00:06.857Z,78.05
2018-03-20T03:02:35.121Z,78.93
2018-03-20T03:05:03.447Z,78.53
2018-03-20T03:07:32.546Z,78.41
2018-03-20T03:10:00.756Z,78.51
2018-03-20T03:12:29.028Z,78.36
2018-03-20T03:14:57.331Z,78.18
2018-03-20T03:17:25.600Z,77.90
2018-03-20T03:19:53.884Z,78.28
2018-03-20T03:22:22.187Z,78.53
2018-03-20T03:24:51.224Z,78.58
2018-03-20T03:27:19.498Z,78.13
2018-03-20T03:29:47.774Z,77.61
2018-03-20T03:32:16.035Z,77.10
2018-03-20T03:34:44.308Z,77.45
2018-03-20T03:37:12.567Z,76.82
2018-03-20T03:39:41.643Z,76.59
2018-03-20T03:42:09.899Z,77.14
2018-03-20T03:44:38.163Z,76.58
2018-03-20T03:47:06.499Z,75.98
2018-03-20T03:49:35.524Z,75.63
2018-03-20T03:52:03.784Z,74.64
2018-03-20T03:54:32.074Z,74.89
2018-03-20T03:57:00.332Z,75.10
2018-03-20T03:59:28.602Z,74.81
2018-03-20T04:01:57.677Z,75.13
2018-03-20T04:04:26.705Z,75.37
2018-03-20T04:06:54.968Z,74.03
2018-03-20T04:09:23.248Z,73.91
2018-03-20T04:11:51.525Z,74.76
2018-03-20T04:14:19.792Z,74.45
2018-03-20T04:16:48.839Z,75.21
2018-03-20T04:19:17.109Z,75.29
2018-03-20T04:21:45.387Z,75.32
2018-03-20T04:24:13.644Z,75.77
2018-03-20T04:26:41.919Z,75.39
2018-03-20T04:29:10.180Z,74.90
2018-03-20T04:31:38.449Z,74.61
2018-03-20T04:34:06.727Z,74.55
2018-03-20T04:36:35.024Z,74.32
2018-03-20T04:39:03.292Z,75.37
2018-03-20T04:41:31.560Z,75.33
2018-03-20T04:44:00.152Z,75.82
2018-03-20T04:46:28.445Z,75.74
2018-03-20T04:48:56.710Z,74.91
2018-03-20T04:51:24.976Z,75.33
2018-03-20T04:53:53.257Z,74.94
2018-03-20T04:56:21.515Z,74.44
2018-03-20T04:58:49.810Z,75.61
2018-03-20T05:01:18.071Z,76.25
2018-03-20T05:03:46.337Z,75.99
2018-03-20T05:06:15.396Z,75.80
2018-03-20T05:08:43.688Z,74.80
2018-03-20T05:11:12.006Z,74.90
2018-03-20T05:13:40.265Z,74.88
2018-03-20T05:16:09.291Z,75.29
2018-03-20T05:18:54.350Z,74.89
2018-03-20T05:21:36.328Z,75.08
2018-03-20T05:24:04.588Z,76.79
2018-03-20T05:26:33.640Z,78.90
2018-03-20T05:29:01.912Z,78.81
2018-03-20T05:31:30.182Z,77.51
2018-03-20T05:33:58.460Z,77.91
2018-03-20T05:36:26.739Z,77.10
2018-03-20T05:38:55.011Z,76.95
2018-03-20T05:41:23.275Z,76.39
2018-03-20T05:43:51.568Z,75.71
2018-03-20T05:46:25.284Z,76.10
2018-03-20T05:49:00.960Z,75.29
2018-03-20T05:54:34.962Z,76.14
2018-03-20T05:57:03.253Z,75.12
2018-03-20T05:59:31.532Z,75.25
2018-03-20T06:02:02.933Z,74.13
2018-03-20T06:04:31.196Z,74.36
2018-03-20T06:06:59.487Z,74.59
2018-03-20T06:09:27.764Z,74.72
2018-03-20T06:11:56.033Z,74.17
2018-03-20T06:14:24.296Z,74.29
2018-03-20T06:16:52.597Z,73.66
2018-03-20T06:19:20.862Z,73.30
2018-03-20T06:21:49.182Z,73.89
2018-03-20T06:24:17.439Z,72.72
2018-03-20T06:26:45.705Z,73.66
2018-03-20T06:29:13.967Z,73.81
2018-03-20T06:31:42.234Z,73.23
2018-03-20T06:34:10.556Z,73.55
2018-03-20T06:36:38.844Z,72.51
2018-03-20T06:39:07.245Z,72.78
2018-03-20T06:41:36.280Z,72.91
2018-03-20T06:44:04.620Z,73.50
2018-03-20T06:46:33.648Z,73.06
2018-03-20T06:49:01.912Z,72.45
2018-03-20T06:51:30.195Z,72.16
2018-03-20T06:53:58.473Z,71.33
2018-03-20T06:56:26.736Z,71.35
2018-03-20T06:58:55.024Z,70.79
2018-03-20T07:01:23.293Z,70.82
2018-03-20T07:03:51.563Z,70.98
2018-03-20T07:06:19.864Z,71.44
2018-03-20T07:08:48.124Z,70.92
2018-03-20T07:11:16.396Z,71.06
2018-03-20T07:13:44.649Z,71.52
2018-03-20T07:16:13.671Z,70.69
2018-03-20T07:18:41.949Z,70.36
2018-03-20T07:21:10.212Z,69.64
2018-03-20T07:23:38.477Z,69.15
2018-03-20T07:26:07.509Z,68.19
2018-03-20T07:28:35.755Z,67.76
2018-03-20T07:31:04.012Z,69.79
2018-03-20T07:33:33.053Z,68.44
2018-03-20T07:36:01.301Z,69.75
2018-03-20T07:38:29.569Z,74.77
2018-03-20T07:40:58.579Z,82.33
2018-03-20T07:43:26.836Z,82.18
2018-03-20T07:45:55.878Z,83.26
2018-03-20T07:48:24.915Z,84.65
2018-03-20T07:50:53.180Z,83.66
2018-03-20T07:53:21.442Z,83.57
2018-03-20T07:55:49.704Z,83.22
2018-03-20T07:58:17.984Z,81.84
2018-03-20T08:00:46.236Z,82.44
2018-03-20T08:03:14.542Z,84.23
2018-03-20T08:05:42.835Z,84.35
2018-03-20T08:08:11.079Z,85.29
2018-03-20T08:10:39.337Z,85.65
2018-03-20T08:13:07.633Z,85.67
2018-03-20T08:15:35.883Z,85.34
2018-03-20T08:18:04.153Z,85.08
2018-03-20T08:20:32.395Z,84.93
2018-03-20T08:23:00.694Z,84.31
2018-03-20T08:25:29.701Z,83.10
2018-03-20T08:27:58.021Z,84.36
2018-03-20T08:30:26.251Z,84.74
2018-03-20T08:32:54.516Z,83.45
2018-03-20T08:35:22.781Z,84.59
2018-03-20T08:37:51.832Z,84.34
2018-03-20T08:40:20.084Z,83.60
2018-03-20T08:42:48.354Z,83.58
2018-03-20T08:45:16.650Z,82.79
2018-03-20T08:47:44.901Z,83.84
2018-03-20T08:50:13.182Z,84.02
2018-03-20T08:52:41.445Z,85.28
2018-03-20T08:55:09.708Z,86.15
2018-03-20T08:57:38.736Z,86.49
2018-03-20T09:00:07.004Z,85.51
2018-03-20T09:02:35.265Z,85.70
2018-03-20T09:05:03.528Z,86.22
2018-03-20T09:07:32.595Z,85.80
2018-03-20T09:10:00.851Z,84.84
2018-03-20T09:12:29.211Z,84.13
2018-03-20T09:14:57.380Z,83.87
2018-03-20T09:17:25.635Z,84.69
2018-03-20T09:19:53.891Z,85.11
2018-03-20T09:22:22.962Z,84.55
2018-03-20T09:24:51.215Z,85.00
2018-03-20T09:27:19.481Z,85.30
2018-03-20T09:29:47.736Z,85.05
2018-03-20T09:32:15.988Z,85.66
2018-03-20T09:34:45.030Z,85.37
2018-03-20T09:37:13.284Z,85.85
2018-03-20T09:39:41.545Z,85.16
2018-03-20T09:42:10.583Z,84.71
2018-03-20T09:44:38.843Z,85.05
2018-03-20T09:47:07.095Z,86.34
2018-03-20T09:49:35.377Z,87.26
2018-03-20T09:52:03.636Z,86.60
2018-03-20T09:54:32.650Z,87.76
2018-03-20T09:57:00.959Z,87.80
2018-03-20T09:59:29.208Z,87.82
2018-03-20T10:01:57.468Z,88.57
2018-03-20T10:04:26.505Z,87.70
2018-03-20T10:06:54.765Z,87.22
2018-03-20T10:09:23.024Z,87.09
2018-03-20T10:11:51.300Z,86.53
2018-03-20T10:14:19.551Z,86.43
2018-03-20T10:16:48.639Z,86.77
2018-03-20T10:19:16.901Z,87.62
2018-03-20T10:21:45.156Z,87.75
2018-03-20T10:24:13.408Z,87.13
2018-03-20T10:26:41.671Z,86.64
2018-03-20T10:29:09.949Z,86.57
2018-03-20T10:31:38.219Z,86.27
2018-03-20T10:34:06.491Z,85.81
2018-03-20T10:36:35.509Z,85.31
2018-03-20T10:39:03.763Z,85.07
2018-03-20T10:41:32.110Z,87.00
2018-03-20T10:44:00.344Z,87.12
2018-03-20T10:46:28.594Z,86.33
2018-03-20T10:48:56.933Z,85.46
2018-03-20T10:51:25.181Z,84.23
2018-03-20T10:53:53.428Z,83.24
2018-03-20T10:56:21.765Z,81.32
2018-03-20T10:58:50.014Z,81.38
2018-03-20T11:01:23.756Z,79.39
2018-03-20T11:03:52.768Z,76.95
2018-03-20T11:06:21.032Z,76.36
2018-03-20T11:08:50.094Z,75.42
2018-03-20T11:11:18.340Z,75.38
2018-03-20T11:13:46.588Z,73.63
2018-03-20T11:16:15.615Z,73.94
2018-03-20T11:18:43.866Z,74.30
2018-03-20T11:21:12.119Z,73.64
2018-03-20T11:23:41.156Z,72.40
2018-03-20T11:26:09.407Z,71.58
2018-03-20T11:28:37.664Z,70.88
2018-03-20T11:31:06.703Z,69.70
2018-03-20T11:33:34.955Z,68.35
2018-03-20T11:36:03.204Z,67.75
2018-03-20T11:38:31.472Z,66.49
2018-03-20T11:40:59.732Z,65.19
2018-03-20T11:43:27.986Z,66.95
2018-03-20T11:45:56.256Z,67.78
2018-03-20T11:48:24.511Z,67.64
2018-03-20T11:50:52.759Z,67.12
2018-03-20T11:53:21.797Z,66.13
2018-03-20T11:55:50.142Z,66.39
2018-03-20T11:58:18.331Z,66.33
2018-03-20T12:00:46.592Z,67.40
2018-03-20T12:03:15.631Z,66.77
2018-03-20T12:05:43.916Z,65.99
2018-03-20T12:08:29.936Z,65.38
2018-03-20T12:10:58.184Z,65.78
2018-03-20T12:13:26.456Z,65.64
2018-03-20T12:15:54.728Z,64.99
2018-03-20T12:18:22.976Z,63.46
2018-03-20T12:20:51.236Z,62.58
2018-03-20T12:23:20.268Z,62.33
2018-03-20T12:25:48.540Z,61.16
2018-03-20T12:28:16.791Z,60.50
2018-03-20T12:30:45.058Z,61.06
2018-03-20T12:33:14.072Z,60.19
2018-03-20T12:35:42.332Z,57.48
2018-03-20T12:38:11.357Z,56.79
2018-03-20T12:40:39.620Z,57.20
2018-03-20T12:43:07.869Z,58.26
2018-03-20T12:45:37.012Z,58.06
2018-03-20T12:48:05.261Z,59.42
2018-03-20T12:50:33.507Z,59.01
2018-03-20T12:53:02.566Z,58.13
2018-03-20T12:55:30.814Z,58.45
2018-03-20T12:57:59.059Z,58.52
2018-03-20T13:00:28.096Z,55.02
2018-03-20T13:02:56.352Z,53.33
2018-03-20T13:05:24.616Z,49.96
2018-03-20T13:07:53.667Z,50.67
2018-03-20T13:10:21.908Z,50.19
2018-03-20T13:12:50.163Z,52.12
2018-03-20T13:15:18.427Z,53.05
2018-03-20T13:17:47.451Z,54.36
2018-03-20T13:20:15.723Z,53.52
2018-03-20T13:22:43.986Z,52.47
2018-03-20T13:25:12.253Z,50.14
2018-03-20T13:27:41.274Z,47.74
2018-03-20T13:30:09.516Z,47.79
2018-03-20T13:32:38.546Z,47.80
2018-03-20T13:35:06.791Z,48.61
2018-03-20T13:37:35.812Z,49.52
2018-03-20T13:40:04.084Z,49.81
2018-03-20T13:42:32.344Z,48.80
2018-03-20T13:45:00.588Z,46.76
2018-03-20T13:47:29.616Z,47.55
2018-03-20T13:49:57.882Z,49.73
2018-03-20T13:52:26.911Z,48.03
2018-03-20T13:54:55.160Z,45.49
2018-03-20T13:57:23.420Z,45.00
2018-03-20T13:59:52.460Z,43.39
2018-03-20T14:02:20.727Z,43.88
2018-03-20T14:04:49.001Z,46.99
2018-03-20T14:07:17.266Z,47.72
2018-03-20T14:09:45.512Z,47.21
2018-03-20T14:12:14.532Z,46.68
2018-03-20T14:14:42.837Z,46.16
2018-03-20T14:17:11.073Z,43.83
2018-03-20T14:19:40.095Z,42.51
2018-03-20T14:22:08.349Z,44.38
2018-03-20T14:24:36.594Z,48.00
2018-03-20T14:27:06.389Z,47.68
2018-03-20T14:29:34.636Z,47.95
2018-03-20T14:32:02.883Z,45.52
2018-03-20T14:34:31.159Z,43.03
2018-03-20T14:36:59.421Z,41.21
2018-03-20T14:39:28.453Z,40.26
2018-03-20T14:41:56.722Z,40.79
2018-03-20T14:44:24.964Z,41.75
2018-03-20T14:46:54.013Z,41.52
2018-03-20T14:49:22.268Z,42.37
2018-03-20T14:51:50.526Z,43.50
2018-03-20T14:54:19.556Z,45.44
2018-03-20T14:56:47.803Z,46.21
2018-03-20T14:59:16.058Z,47.26
2018-03-20T15:01:45.085Z,45.03
2018-03-20T15:04:13.340Z,43.93
2018-03-20T15:06:41.615Z,42.21
2018-03-20T15:09:10.643Z,41.07
2018-03-20T15:11:38.892Z,41.49
2018-03-20T15:14:07.182Z,44.02
2018-03-20T15:16:35.433Z,45.29
2018-03-20T15:19:04.464Z,46.34
2018-03-20T15:21:32.724Z,45.50
2018-03-20T15:24:00.978Z,43.66
2018-03-20T15:26:30.018Z,43.67
2018-03-20T15:28:58.272Z,44.68
2018-03-20T15:31:26.529Z,45.17
2018-03-20T15:33:54.801Z,44.91
2018-03-20T15:36:23.060Z,44.05
2018-03-20T15:38:52.072Z,44.12
2018-03-20T15:41:20.347Z,44.49
2018-03-20T15:43:48.602Z,45.12
2018-03-20T15:46:16.858Z,43.98
2018-03-20T15:48:45.131Z,42.21
2018-03-20T15:51:13.379Z,41.03
2018-03-20T15:53:41.636Z,40.77
2018-03-20T15:56:09.931Z,42.26
2018-03-20T15:58:38.205Z,41.97
2018-03-20T16:01:06.448Z,42.04
2018-03-20T16:03:35.539Z,42.73
2018-03-20T16:06:04.580Z,44.62
2018-03-20T16:08:32.887Z,45.65
2018-03-20T16:11:01.138Z,44.15
2018-03-20T16:13:29.461Z,42.36
2018-03-20T16:15:58.506Z,40.31
2018-03-20T16:18:26.966Z,39.47
2018-03-20T16:20:55.348Z,40.51
2018-03-20T16:23:23.637Z,39.82
2018-03-20T16:25:51.949Z,39.59
2018-03-20T16:28:20.320Z,40.64
2018-03-20T16:30:48.633Z,40.44
2018-03-20T16:33:16.920Z,40.23
2018-03-20T16:35:45.327Z,40.68
2018-03-20T16:38:13.723Z,42.43
2018-03-20T16:40:42.843Z,42.51
2018-03-20T16:43:11.261Z,43.75
2018-03-20T16:45:40.494Z,44.59
2018-03-20T16:48:09.691Z,45.88
2018-03-20T16:50:38.550Z,45.89
2018-03-20T16:53:07.425Z,47.38
2018-03-20T16:55:36.228Z,48.39
2018-03-20T16:58:05.016Z,49.06
2018-03-20T17:00:34.891Z,49.63
2018-03-20T17:03:03.626Z,50.33
2018-03-20T17:05:33.055Z,50.33
2018-03-20T17:08:03.181Z,50.02
2018-03-20T17:10:33.324Z,50.81
2018-03-20T17:13:03.066Z,51.07
2018-03-20T17:15:33.410Z,51.16
2018-03-20T17:18:04.331Z,51.51
2018-03-20T17:20:34.773Z,51.84
2018-03-20T17:23:04.608Z,52.34
2018-03-20T17:25:34.620Z,52.27
2018-03-20T17:28:04.668Z,52.34
2018-03-20T17:30:34.427Z,52.78
2018-03-20T17:33:05.114Z,53.04
2018-03-20T17:35:37.842Z,53.55
2018-03-20T17:38:07.721Z,53.72
2018-03-20T17:40:37.513Z,53.71
2018-03-20T17:43:07.364Z,53.81
2018-03-20T17:45:38.096Z,53.97
2018-03-20T17:48:08.831Z,53.71
2018-03-20T17:50:39.474Z,53.98
2018-03-20T17:53:09.374Z,53.84
2018-03-20T17:55:40.014Z,54.30
2018-03-20T17:58:10.662Z,54.55
2018-03-20T18:00:40.763Z,54.45
2018-03-20T18:03:11.571Z,54.57
2018-03-20T18:05:42.269Z,54.86
2018-03-20T18:08:12.439Z,54.84
2018-03-20T18:10:43.100Z,55.01
2018-03-20T18:13:13.186Z,54.93
2018-03-20T18:15:43.031Z,54.69
2018-03-20T18:18:12.413Z,54.65
2018-03-20T18:20:42.610Z,54.55
2018-03-20T18:23:12.571Z,54.98
2018-03-20T18:25:42.626Z,54.58
2018-03-20T18:28:12.895Z,54.71
2018-03-20T18:30:43.689Z,54.92
2018-03-20T18:33:13.724Z,55.09
2018-03-20T18:35:43.746Z,55.16
2018-03-20T18:38:14.514Z,55.37
2018-03-20T18:40:44.388Z,55.73
2018-03-20T18:43:15.290Z,55.50
2018-03-20T18:45:44.603Z,55.61
2018-03-20T18:48:14.964Z,55.51
2018-03-20T18:50:44.258Z,55.82
2018-03-20T18:53:14.625Z,55.78
2018-03-20T18:55:43.878Z,55.94
2018-03-20T18:58:13.296Z,56.30
2018-03-20T19:00:43.268Z,56.07
2018-03-20T19:03:12.527Z,56.45
2018-03-20T19:05:41.931Z,56.87
2018-03-20T19:08:11.398Z,56.50
2018-03-20T19:10:41.588Z,56.43
2018-03-20T19:13:10.897Z,56.51
2018-03-20T19:15:40.162Z,56.57
2018-03-20T19:18:09.609Z,56.92
2018-03-20T19:20:39.850Z,56.99
2018-03-20T19:23:09.225Z,57.19
2018-03-20T19:25:39.232Z,56.96
2018-03-20T19:28:08.727Z,57.12
2018-03-20T19:30:38.664Z,57.12
2018-03-20T19:33:08.884Z,57.36
2018-03-20T19:35:38.670Z,57.74
2018-03-20T19:38:08.743Z,58.19
2018-03-20T19:40:38.527Z,58.55
2018-03-20T19:43:08.700Z,58.50
2018-03-20T19:45:38.621Z,58.23
2018-03-20T19:48:08.661Z,58.30
2018-03-20T19:50:38.517Z,58.67
2018-03-20T19:53:11.018Z,58.32
2018-03-20T19:55:41.665Z,58.48
2018-03-20T19:58:12.481Z,58.49
2018-03-20T20:00:42.335Z,58.19
2018-03-20T20:03:11.755Z,58.10
2018-03-20T20:05:41.231Z,58.56
2018-03-20T20:08:11.535Z,58.34
2018-03-20T20:10:40.942Z,58.27
2018-03-20T20:13:10.528Z,58.85
2018-03-20T20:15:40.690Z,58.62
2018-03-20T20:18:10.998Z,58.77
2018-03-20T20:20:40.473Z,58.75
2018-03-20T20:23:10.699Z,58.95
2018-03-20T20:25:40.016Z,59.46
2018-03-20T20:28:09.530Z,59.08
2018-03-20T20:30:38.830Z,59.45
2018-03-20T20:33:08.244Z,59.23
2018-03-20T20:35:37.566Z,59.26
2018-03-20T20:38:06.993Z,59.45
2018-03-20T20:40:36.445Z,59.13
2018-03-20T20:43:07.140Z,59.56
2018-03-20T20:45:37.879Z,59.63
2018-03-20T20:48:08.088Z,59.26
2018-03-20T20:50:38.712Z,59.86
2018-03-20T20:53:09.503Z,59.76
2018-03-20T20:55:39.696Z,59.78
2018-03-20T20:58:09.583Z,60.18
2018-03-20T21:00:39.634Z,59.98
2018-03-20T21:03:10.392Z,60.24
2018-03-20T21:05:40.323Z,60.44
2018-03-20T21:08:10.379Z,60.40
2018-03-20T21:10:41.156Z,60.16
2018-03-20T21:13:11.278Z,60.45
2018-03-20T21:15:41.200Z,60.37
2018-03-20T21:18:11.603Z,60.51
2018-03-20T21:20:41.488Z,60.60
2018-03-20T21:23:11.474Z,60.42
2018-03-20T21:25:41.486Z,60.28
2018-03-20T21:28:11.531Z,60.40
2018-03-20T21:30:42.308Z,60.71
2018-03-20T21:33:12.204Z,60.77
2018-03-20T21:35:41.943Z,60.91
2018-03-20T21:38:12.425Z,61.00
2018-03-20T21:40:43.089Z,61.14
2018-03-20T21:43:13.200Z,61.40
2018-03-20T21:45:43.313Z,61.58
2018-03-20T21:48:14.662Z,62.08
2018-03-20T21:50:44.470Z,62.23
2018-03-20T21:53:15.070Z,62.24
2018-03-20T21:55:44.666Z,62.39
2018-03-20T21:58:14.469Z,62.24
2018-03-20T22:00:44.014Z,62.85
2018-03-20T22:03:14.745Z,62.58
2018-03-20T22:05:44.659Z,63.03
2018-03-20T22:08:14.472Z,63.54
2018-03-20T22:10:45.443Z,64.45
2018-03-20T22:13:15.512Z,65.25
2018-03-20T22:15:45.301Z,64.23
2018-03-20T22:18:15.223Z,64.98
2018-03-20T22:20:45.295Z,64.07
2018-03-20T22:23:15.204Z,64.51
2018-03-20T22:25:44.568Z,63.90
2018-03-20T22:28:13.498Z,64.88
2018-03-20T22:30:41.841Z,64.10
2018-03-20T22:33:10.880Z,63.64
2018-03-20T22:35:39.147Z,63.85
2018-03-20T22:38:07.423Z,63.26
2018-03-20T22:40:35.760Z,63.14
2018-03-20T22:43:04.785Z,63.46
2018-03-20T22:45:33.052Z,63.47
2018-03-20T22:48:02.071Z,63.63
2018-03-20T22:50:30.333Z,63.53
2018-03-20T22:52:58.596Z,63.55
2018-03-20T22:55:27.616Z,63.42
2018-03-20T22:57:55.882Z,63.95
2018-03-20T23:00:29.100Z,63.41
2018-03-20T23:02:57.386Z,63.53
2018-03-20T23:05:25.636Z,63.35
2018-03-20T23:07:53.888Z,63.71
2018-03-20T23:10:22.160Z,64.25
2018-03-20T23:12:50.412Z,64.00
2018-03-20T23:15:18.692Z,64.09
2018-03-20T23:17:47.727Z,64.39
2018-03-20T23:20:15.981Z,65.04
2018-03-20T23:22:44.267Z,64.91
2018-03-20T23:25:12.537Z,65.29
2018-03-20T23:27:40.797Z,65.56
2018-03-20T23:30:09.816Z,66.22
2018-03-20T23:32:38.203Z,66.46
2018-03-20T23:35:06.464Z,67.15
2018-03-20T23:37:34.719Z,67.02
2018-03-20T23:40:03.765Z,67.45
2018-03-20T23:42:32.020Z,67.87
2018-03-20T23:45:00.298Z,68.18
2018-03-20T23:47:28.573Z,67.94
2018-03-20T23:49:56.828Z,68.30
2018-03-20T23:52:25.162Z,69.00
2018-03-20T23:54:53.460Z,69.25
2018-03-20T23:57:21.741Z,70.63
2018-03-20T23:59:50.765Z,71.18
